sensor_id;sensor_type;location;lat;lon;timestamp;temperature;humidity
65064;DHT22;51654;51.452;6.644;2022-10-16T07:41:13;17.40;68.00
65064;DHT22;51654;51.452;6.644;2022-10-16T07:43:45;17.50;67.10
65064;DHT22;51654;51.452;6.644;2022-10-16T07:46:13;18.00;65.40
65064;DHT22;51654;51.452;6.644;2022-10-16T07:48:40;18.20;63.20
65064;DHT22;51654;51.452;6.644;2022-10-16T07:51:07;18.20;62.10
65064;DHT22;51654;51.452;6.644;2022-10-16T07:53:34;18.50;61.90
65064;DHT22;51654;51.452;6.644;2022-10-16T07:56:02;18.70;60.30
65064;DHT22;51654;51.452;6.644;2022-10-16T07:58:29;18.80;59.90
65064;DHT22;51654;51.452;6.644;2022-10-16T08:00:56;19.00;60.70
65064;DHT22;51654;51.452;6.644;2022-10-16T08:03:23;19.20;58.40
65064;DHT22;51654;51.452;6.644;2022-10-16T08:05:50;19.30;58.70
65064;DHT22;51654;51.452;6.644;2022-10-16T08:08:17;19.70;59.00
65064;DHT22;51654;51.452;6.644;2022-10-16T08:10:44;19.70;56.80
65064;DHT22;51654;51.452;6.644;2022-10-16T08:13:11;19.90;56.70
65064;DHT22;51654;51.452;6.644;2022-10-16T08:15:42;20.20;55.80
65064;DHT22;51654;51.452;6.644;2022-10-16T08:18:09;20.40;54.60
65064;DHT22;51654;51.452;6.644;2022-10-16T08:20:38;20.20;54.40
65064;DHT22;51654;51.452;6.644;2022-10-16T08:23:05;20.20;54.60
65064;DHT22;51654;51.452;6.644;2022-10-16T08:25:34;20.40;55.40
65064;DHT22;51654;51.452;6.644;2022-10-16T08:28:02;20.80;54.20
65064;DHT22;51654;51.452;6.644;2022-10-16T08:30:29;21.00;53.60
65064;DHT22;51654;51.452;6.644;2022-10-16T08:32:56;21.20;52.50
65064;DHT22;51654;51.452;6.644;2022-10-16T08:35:24;21.10;52.00
65064;DHT22;51654;51.452;6.644;2022-10-16T08:37:51;21.20;53.00
65064;DHT22;51654;51.452;6.644;2022-10-16T08:40:19;21.40;52.00
65064;DHT22;51654;51.452;6.644;2022-10-16T08:47:49;21.60;50.60
65064;DHT22;51654;51.452;6.644;2022-10-16T08:50:22;21.80;50.90
65064;DHT22;51654;51.452;6.644;2022-10-16T08:52:50;21.80;50.00
65064;DHT22;51654;51.452;6.644;2022-10-16T08:57:47;21.90;48.90
65064;DHT22;51654;51.452;6.644;2022-10-16T09:00:14;21.90;49.80
65064;DHT22;51654;51.452;6.644;2022-10-16T09:02:45;22.00;50.10
65064;DHT22;51654;51.452;6.644;2022-10-16T09:23:37;22.50;47.70
65064;DHT22;51654;51.452;6.644;2022-10-16T09:26:05;22.50;46.70
65064;DHT22;51654;51.452;6.644;2022-10-16T09:28:36;22.20;46.90
65064;DHT22;51654;51.452;6.644;2022-10-16T09:31:02;22.40;48.80
65064;DHT22;51654;51.452;6.644;2022-10-16T09:33:30;22.60;47.00
65064;DHT22;51654;51.452;6.644;2022-10-16T09:35:59;22.70;46.00
65064;DHT22;51654;51.452;6.644;2022-10-16T09:40:55;22.40;47.60
65064;DHT22;51654;51.452;6.644;2022-10-16T09:43:32;22.60;48.30
65064;DHT22;51654;51.452;6.644;2022-10-16T09:48:31;23.00;46.40
65064;DHT22;51654;51.452;6.644;2022-10-16T09:51:01;23.00;45.20
65064;DHT22;51654;51.452;6.644;2022-10-16T09:53:44;23.00;45.90
65064;DHT22;51654;51.452;6.644;2022-10-16T09:56:11;22.90;45.80
65064;DHT22;51654;51.452;6.644;2022-10-16T09:58:43;23.00;47.20
65064;DHT22;51654;51.452;6.644;2022-10-16T10:01:15;23.30;45.90
65064;DHT22;51654;51.452;6.644;2022-10-16T10:03:42;23.20;45.00
65064;DHT22;51654;51.452;6.644;2022-10-16T10:06:17;23.10;45.90
65064;DHT22;51654;51.452;6.644;2022-10-16T10:08:55;23.00;45.20
65064;DHT22;51654;51.452;6.644;2022-10-16T10:14:15;22.90;45.80
65064;DHT22;51654;51.452;6.644;2022-10-16T10:16:43;22.90;45.80
65064;DHT22;51654;51.452;6.644;2022-10-16T10:19:21;22.90;44.90
65064;DHT22;51654;51.452;6.644;2022-10-16T10:21:49;22.80;44.80
65064;DHT22;51654;51.452;6.644;2022-10-16T10:24:18;22.60;45.50
65064;DHT22;51654;51.452;6.644;2022-10-16T10:26:56;22.70;45.60
65064;DHT22;51654;51.452;6.644;2022-10-16T10:29:39;22.70;45.60
65064;DHT22;51654;51.452;6.644;2022-10-16T10:40:28;23.20;44.30
65064;DHT22;51654;51.452;6.644;2022-10-16T10:43:11;23.20;44.40
65064;DHT22;51654;51.452;6.644;2022-10-16T10:45:49;23.30;44.20
65064;DHT22;51654;51.452;6.644;2022-10-16T10:48:43;23.20;43.40
65064;DHT22;51654;51.452;6.644;2022-10-16T10:51:18;22.70;43.70
65064;DHT22;51654;51.452;6.644;2022-10-16T11:06:36;22.70;47.10
65064;DHT22;51654;51.452;6.644;2022-10-16T11:09:10;22.80;46.20
65064;DHT22;51654;51.452;6.644;2022-10-16T11:11:43;23.00;46.30
65064;DHT22;51654;51.452;6.644;2022-10-16T11:16:54;22.90;45.80
65064;DHT22;51654;51.452;6.644;2022-10-16T11:24:55;22.80;45.60
65064;DHT22;51654;51.452;6.644;2022-10-16T11:29:59;22.70;44.60
65064;DHT22;51654;51.452;6.644;2022-10-16T11:32:28;22.50;44.90
65064;DHT22;51654;51.452;6.644;2022-10-16T11:35:00;22.10;45.10
65064;DHT22;51654;51.452;6.644;2022-10-16T11:37:36;21.70;45.50
65064;DHT22;51654;51.452;6.644;2022-10-16T11:42:54;21.30;46.90
65064;DHT22;51654;51.452;6.644;2022-10-16T11:45:32;21.40;47.90
65064;DHT22;51654;51.452;6.644;2022-10-16T11:48:23;21.60;47.40
65064;DHT22;51654;51.452;6.644;2022-10-16T11:51:00;21.70;46.90
65064;DHT22;51654;51.452;6.644;2022-10-16T11:56:19;22.00;47.30
65064;DHT22;51654;51.452;6.644;2022-10-16T12:01:17;22.00;46.10
65064;DHT22;51654;51.452;6.644;2022-10-16T12:08:53;22.10;47.60
65064;DHT22;51654;51.452;6.644;2022-10-16T12:11:38;22.20;47.30
65064;DHT22;51654;51.452;6.644;2022-10-16T12:16:58;22.00;46.30
65064;DHT22;51654;51.452;6.644;2022-10-16T12:19:27;22.10;46.90
65064;DHT22;51654;51.452;6.644;2022-10-16T12:21:57;22.20;46.40
65064;DHT22;51654;51.452;6.644;2022-10-16T12:27:01;22.20;45.80
65064;DHT22;51654;51.452;6.644;2022-10-16T12:31:55;21.80;46.10
65064;DHT22;51654;51.452;6.644;2022-10-16T12:34:41;21.40;45.20
65064;DHT22;51654;51.452;6.644;2022-10-16T12:37:13;20.90;46.20
65064;DHT22;51654;51.452;6.644;2022-10-16T12:39:40;20.70;46.70
65064;DHT22;51654;51.452;6.644;2022-10-16T12:42:23;20.50;47.10
65064;DHT22;51654;51.452;6.644;2022-10-16T12:44:50;20.30;47.70
65064;DHT22;51654;51.452;6.644;2022-10-16T12:47:34;20.10;49.20
65064;DHT22;51654;51.452;6.644;2022-10-16T12:50:02;20.10;48.60
65064;DHT22;51654;51.452;6.644;2022-10-16T12:52:37;19.90;49.40
65064;DHT22;51654;51.452;6.644;2022-10-16T12:55:05;19.90;49.70
65064;DHT22;51654;51.452;6.644;2022-10-16T13:23:33;22.10;44.90
65064;DHT22;51654;51.452;6.644;2022-10-16T13:28:33;21.50;44.60
65064;DHT22;51654;51.452;6.644;2022-10-16T13:31:01;21.10;45.90
65064;DHT22;51654;51.452;6.644;2022-10-16T13:35:59;20.30;47.50
65064;DHT22;51654;51.452;6.644;2022-10-16T13:38:30;19.90;47.90
65064;DHT22;51654;51.452;6.644;2022-10-16T13:48:28;19.30;49.70
65064;DHT22;51654;51.452;6.644;2022-10-16T13:51:30;19.10;50.10
65064;DHT22;51654;51.452;6.644;2022-10-16T13:54:09;19.10;51.30
65064;DHT22;51654;51.452;6.644;2022-10-16T13:56:38;19.10;52.40
65064;DHT22;51654;51.452;6.644;2022-10-16T13:59:20;19.30;52.30
65064;DHT22;51654;51.452;6.644;2022-10-16T14:01:49;19.40;51.50
65064;DHT22;51654;51.452;6.644;2022-10-16T14:04:17;19.60;50.80
65064;DHT22;51654;51.452;6.644;2022-10-16T14:06:45;19.50;51.50
65064;DHT22;51654;51.452;6.644;2022-10-16T14:09:15;19.50;51.20
65064;DHT22;51654;51.452;6.644;2022-10-16T14:11:56;19.40;52.00
65064;DHT22;51654;51.452;6.644;2022-10-16T14:14:24;19.40;54.30
65064;DHT22;51654;51.452;6.644;2022-10-16T14:16:53;19.20;51.90
65064;DHT22;51654;51.452;6.644;2022-10-16T14:19:22;19.00;52.90
65064;DHT22;51654;51.452;6.644;2022-10-16T14:21:51;18.90;53.10
65064;DHT22;51654;51.452;6.644;2022-10-16T14:24:25;18.80;55.40
65064;DHT22;51654;51.452;6.644;2022-10-16T14:26:53;18.80;55.70
65064;DHT22;51654;51.452;6.644;2022-10-16T14:29:23;18.80;53.30
65064;DHT22;51654;51.452;6.644;2022-10-16T14:31:58;18.60;53.90
65064;DHT22;51654;51.452;6.644;2022-10-16T14:37:00;18.70;54.90
65064;DHT22;51654;51.452;6.644;2022-10-16T14:39:31;18.60;54.70
65064;DHT22;51654;51.452;6.644;2022-10-16T14:42:01;18.60;54.40
65064;DHT22;51654;51.452;6.644;2022-10-16T14:44:29;18.50;55.10
65064;DHT22;51654;51.452;6.644;2022-10-16T14:46:57;18.50;56.50
65064;DHT22;51654;51.452;6.644;2022-10-16T14:49:26;18.70;58.40
65064;DHT22;51654;51.452;6.644;2022-10-16T14:51:54;18.80;59.00
65064;DHT22;51654;51.452;6.644;2022-10-16T14:54:22;18.90;58.60
65064;DHT22;51654;51.452;6.644;2022-10-16T14:56:58;18.90;57.30
65064;DHT22;51654;51.452;6.644;2022-10-16T14:59:38;18.90;57.20
65064;DHT22;51654;51.452;6.644;2022-10-16T15:02:14;18.70;56.60
65064;DHT22;51654;51.452;6.644;2022-10-16T15:04:42;18.70;59.20
65064;DHT22;51654;51.452;6.644;2022-10-16T15:07:09;18.70;59.50
65064;DHT22;51654;51.452;6.644;2022-10-16T15:09:36;18.70;61.70
65064;DHT22;51654;51.452;6.644;2022-10-16T15:12:03;18.70;60.80
65064;DHT22;51654;51.452;6.644;2022-10-16T15:14:30;18.80;61.90
65064;DHT22;51654;51.452;6.644;2022-10-16T15:16:57;18.80;62.50
65064;DHT22;51654;51.452;6.644;2022-10-16T15:19:24;18.80;63.20
65064;DHT22;51654;51.452;6.644;2022-10-16T15:21:51;18.80;63.00
65064;DHT22;51654;51.452;6.644;2022-10-16T15:24:19;18.80;63.00
65064;DHT22;51654;51.452;6.644;2022-10-16T15:26:47;18.70;62.90
65064;DHT22;51654;51.452;6.644;2022-10-16T15:29:14;18.70;62.90
65064;DHT22;51654;51.452;6.644;2022-10-16T15:31:41;18.60;62.10
65064;DHT22;51654;51.452;6.644;2022-10-16T15:34:09;18.60;62.70
65064;DHT22;51654;51.452;6.644;2022-10-16T15:36:37;18.60;64.40
65064;DHT22;51654;51.452;6.644;2022-10-16T15:39:15;18.70;65.00
65064;DHT22;51654;51.452;6.644;2022-10-16T15:41:42;18.80;64.10
65064;DHT22;51654;51.452;6.644;2022-10-16T15:44:10;18.80;65.30
65064;DHT22;51654;51.452;6.644;2022-10-16T15:46:37;18.90;66.50
65064;DHT22;51654;51.452;6.644;2022-10-16T15:49:04;19.00;65.60
65064;DHT22;51654;51.452;6.644;2022-10-16T15:51:31;18.90;64.10
65064;DHT22;51654;51.452;6.644;2022-10-16T15:53:59;18.70;63.70
65064;DHT22;51654;51.452;6.644;2022-10-16T15:56:29;18.60;64.20
65064;DHT22;51654;51.452;6.644;2022-10-16T15:58:59;18.50;64.60
65064;DHT22;51654;51.452;6.644;2022-10-16T16:01:28;18.50;65.30
65064;DHT22;51654;51.452;6.644;2022-10-16T16:03:56;18.60;66.50
65064;DHT22;51654;51.452;6.644;2022-10-16T16:06:23;18.60;65.80
65064;DHT22;51654;51.452;6.644;2022-10-16T16:08:50;18.50;64.60
65064;DHT22;51654;51.452;6.644;2022-10-16T16:11:18;18.40;64.20
65064;DHT22;51654;51.452;6.644;2022-10-16T16:13:45;18.20;64.50
65064;DHT22;51654;51.452;6.644;2022-10-16T16:16:13;18.20;64.70
65064;DHT22;51654;51.452;6.644;2022-10-16T16:18:40;18.00;64.90
65064;DHT22;51654;51.452;6.644;2022-10-16T16:21:09;18.10;66.20
65064;DHT22;51654;51.452;6.644;2022-10-16T16:23:36;18.00;66.40
65064;DHT22;51654;51.452;6.644;2022-10-16T16:28:33;18.00;66.60
65064;DHT22;51654;51.452;6.644;2022-10-16T16:31:00;17.90;65.90
65064;DHT22;51654;51.452;6.644;2022-10-16T16:33:27;17.80;66.10
65064;DHT22;51654;51.452;6.644;2022-10-16T16:35:57;17.70;67.20
65064;DHT22;51654;51.452;6.644;2022-10-16T16:38:26;17.60;67.50
65064;DHT22;51654;51.452;6.644;2022-10-16T16:40:54;17.60;67.50
65064;DHT22;51654;51.452;6.644;2022-10-16T16:43:22;17.50;68.00
65064;DHT22;51654;51.452;6.644;2022-10-16T16:45:50;17.50;68.70
65064;DHT22;51654;51.452;6.644;2022-10-16T16:48:17;17.50;69.10
65064;DHT22;51654;51.452;6.644;2022-10-16T16:50:44;17.50;69.70
65064;DHT22;51654;51.452;6.644;2022-10-16T16:53:11;17.50;69.80
65064;DHT22;51654;51.452;6.644;2022-10-16T16:55:37;17.50;69.70
65064;DHT22;51654;51.452;6.644;2022-10-16T16:58:04;17.50;69.60
65064;DHT22;51654;51.452;6.644;2022-10-16T17:00:31;17.50;69.70
65064;DHT22;51654;51.452;6.644;2022-10-16T17:02:58;17.50;70.30
65064;DHT22;51654;51.452;6.644;2022-10-16T17:05:26;17.50;70.70
65064;DHT22;51654;51.452;6.644;2022-10-16T17:07:55;17.50;70.40
65064;DHT22;51654;51.452;6.644;2022-10-16T17:10:22;17.50;70.30
65064;DHT22;51654;51.452;6.644;2022-10-16T17:12:49;17.50;70.50
65064;DHT22;51654;51.452;6.644;2022-10-16T17:15:16;17.40;70.70
65064;DHT22;51654;51.452;6.644;2022-10-16T17:17:42;17.30;70.20
65064;DHT22;51654;51.452;6.644;2022-10-16T17:20:09;17.20;69.50
65064;DHT22;51654;51.452;6.644;2022-10-16T17:22:37;17.00;70.00
65064;DHT22;51654;51.452;6.644;2022-10-16T17:25:04;17.00;70.30
65064;DHT22;51654;51.452;6.644;2022-10-16T17:27:33;16.90;70.70
65064;DHT22;51654;51.452;6.644;2022-10-16T17:30:03;16.90;71.20
65064;DHT22;51654;51.452;6.644;2022-10-16T17:32:30;16.90;71.60
65064;DHT22;51654;51.452;6.644;2022-10-16T17:34:57;16.90;71.70
65064;DHT22;51654;51.452;6.644;2022-10-16T17:37:23;17.00;72.30
65064;DHT22;51654;51.452;6.644;2022-10-16T17:39:50;17.00;72.80
65064;DHT22;51654;51.452;6.644;2022-10-16T17:42:18;17.00;72.10
65064;DHT22;51654;51.452;6.644;2022-10-16T17:44:45;17.00;71.70
65064;DHT22;51654;51.452;6.644;2022-10-16T17:47:11;17.00;71.90
65064;DHT22;51654;51.452;6.644;2022-10-16T17:49:38;17.00;71.80
65064;DHT22;51654;51.452;6.644;2022-10-16T17:52:05;17.00;71.80
65064;DHT22;51654;51.452;6.644;2022-10-16T17:54:33;16.90;72.00
65064;DHT22;51654;51.452;6.644;2022-10-16T17:56:59;16.90;71.90
65064;DHT22;51654;51.452;6.644;2022-10-16T17:59:26;16.90;71.00
65064;DHT22;51654;51.452;6.644;2022-10-16T18:01:54;16.80;71.10
65064;DHT22;51654;51.452;6.644;2022-10-16T18:04:21;16.80;70.80
65064;DHT22;51654;51.452;6.644;2022-10-16T18:06:48;16.70;71.60
65064;DHT22;51654;51.452;6.644;2022-10-16T18:09:15;16.70;71.50
65064;DHT22;51654;51.452;6.644;2022-10-16T18:11:43;16.70;70.70
65064;DHT22;51654;51.452;6.644;2022-10-16T18:14:11;16.50;70.20
65064;DHT22;51654;51.452;6.644;2022-10-16T18:16:38;16.50;70.60
65064;DHT22;51654;51.452;6.644;2022-10-16T18:19:05;16.50;70.50
65064;DHT22;51654;51.452;6.644;2022-10-16T18:21:32;16.50;69.50
65064;DHT22;51654;51.452;6.644;2022-10-16T18:24:00;16.50;69.30
65064;DHT22;51654;51.452;6.644;2022-10-16T18:26:27;16.60;69.20
65064;DHT22;51654;51.452;6.644;2022-10-16T18:28:55;16.60;68.90
65064;DHT22;51654;51.452;6.644;2022-10-16T18:31:22;16.50;68.10
65064;DHT22;51654;51.452;6.644;2022-10-16T18:33:49;16.50;66.60
65064;DHT22;51654;51.452;6.644;2022-10-16T18:36:18;16.50;67.70
65064;DHT22;51654;51.452;6.644;2022-10-16T18:38:45;16.50;68.40
65064;DHT22;51654;51.452;6.644;2022-10-16T18:41:12;16.60;68.30
65064;DHT22;51654;51.452;6.644;2022-10-16T18:43:39;16.60;67.70
65064;DHT22;51654;51.452;6.644;2022-10-16T18:46:07;16.70;67.90
65064;DHT22;51654;51.452;6.644;2022-10-16T18:48:35;16.70;67.50
65064;DHT22;51654;51.452;6.644;2022-10-16T18:53:34;16.70;68.10
65064;DHT22;51654;51.452;6.644;2022-10-16T18:56:01;16.70;68.40
65064;DHT22;51654;51.452;6.644;2022-10-16T18:58:28;16.70;68.50
65064;DHT22;51654;51.452;6.644;2022-10-16T19:00:54;16.50;66.40
65064;DHT22;51654;51.452;6.644;2022-10-16T19:03:21;16.40;67.10
65064;DHT22;51654;51.452;6.644;2022-10-16T19:05:48;16.10;67.90
65064;DHT22;51654;51.452;6.644;2022-10-16T19:08:15;15.90;68.50
65064;DHT22;51654;51.452;6.644;2022-10-16T19:10:42;15.80;69.30
65064;DHT22;51654;51.452;6.644;2022-10-16T19:13:09;15.60;70.10
65064;DHT22;51654;51.452;6.644;2022-10-16T19:15:40;15.50;70.70
65064;DHT22;51654;51.452;6.644;2022-10-16T19:18:07;15.30;71.80
65064;DHT22;51654;51.452;6.644;2022-10-16T19:20:34;15.20;72.80
65064;DHT22;51654;51.452;6.644;2022-10-16T19:23:00;15.00;73.50
65064;DHT22;51654;51.452;6.644;2022-10-16T19:25:28;14.90;74.10
65064;DHT22;51654;51.452;6.644;2022-10-16T19:27:54;14.80;74.50
65064;DHT22;51654;51.452;6.644;2022-10-16T19:30:22;14.80;74.90
65064;DHT22;51654;51.452;6.644;2022-10-16T19:32:49;14.80;75.20
65064;DHT22;51654;51.452;6.644;2022-10-16T19:35:18;14.80;75.50
65064;DHT22;51654;51.452;6.644;2022-10-16T19:37:48;14.80;75.80
65064;DHT22;51654;51.452;6.644;2022-10-16T19:40:15;14.80;76.00
65064;DHT22;51654;51.452;6.644;2022-10-16T19:42:41;14.70;76.30
65064;DHT22;51654;51.452;6.644;2022-10-16T19:45:10;14.70;76.50
